Time;durP1;ratioP1;P1;durP2;ratioP2;P2;SDS_P1;SDS_P2;PMS_P1;PMS_P2;Temp;Humidity;BMP_temperature;BMP_pressure;BME280_temperature;BME280_humidity;BME280_pressure;Samples;Min_cycle;Max_cycle;Signal;HPM_P1;HPM_P2
2023/02/06 00:01:57;;;;;;;11.82;10.82;;;;;;;;;;4997226;28;20100;-51
2023/02/06 00:04:23;;;;;;;11.48;10.77;;;;;;;;;;4998992;28;20033;-59
2023/02/06 00:06:48;;;;;;;12.48;11.68;;;;;;;;;;4996949;28;20117;-59
2023/02/06 00:09:13;;;;;;;11.63;10.85;;;;;;;;;;4997065;28;20554;-59
2023/02/06 00:11:39;;;;;;;12.55;11.75;;;;;;;;;;5000964;28;20042;-59
2023/02/06 00:14:05;;;;;;;13.07;12.27;;;;;;;;;;4993935;28;20038;-59
2023/02/06 00:16:33;;;;;;;11.63;10.93;;;;;;;;;;5001128;28;20620;-59
2023/02/06 00:18:59;;;;;;;13.07;12.18;;;;;;;;;;4997153;28;20513;-59
2023/02/06 00:21:26;;;;;;;11.82;11.02;;;;;;;;;;4994160;28;20041;-59
2023/02/06 00:23:57;;;;;;;10.90;10.20;;;;;;;;;;4995338;28;20053;-61
2023/02/06 00:26:23;;;;;;;12.15;11.35;;;;;;;;;;4997035;28;20601;-61
2023/02/06 00:28:49;;;;;;;10.73;10.02;;;;;;;;;;4997023;28;20038;-53
2023/02/06 00:31:14;;;;;;;11.25;10.55;;;;;;;;;;4993984;28;20540;-55
2023/02/06 00:33:40;;;;;;;10.80;10.10;;;;;;;;;;4999101;28;20141;-61
2023/02/06 00:36:06;;;;;;;10.82;10.13;;;;;;;;;;4997827;28;20048;-61
2023/02/06 00:38:32;;;;;;;12.30;11.50;;;;;;;;;;4997938;28;20116;-60
2023/02/06 00:40:57;;;;;;;12.13;11.32;;;;;;;;;;5002484;28;20113;-61
2023/02/06 00:43:23;;;;;;;12.55;11.70;;;;;;;;;;5002321;28;20045;-53
2023/02/06 00:45:53;;;;;;;11.77;11.05;;;;;;;;;;4995522;28;20488;-61
2023/02/06 00:48:18;;;;;;;12.35;11.63;;;;;;;;;;4994468;28;20061;-61
2023/02/06 00:50:44;;;;;;;12.65;11.85;;;;;;;;;;5004229;28;20460;-61
2023/02/06 00:53:09;;;;;;;14.82;13.90;;;;;;;;;;4996196;28;20033;-53
2023/02/06 00:55:34;;;;;;;12.07;11.35;;;;;;;;;;4997262;28;20034;-53
2023/02/06 00:58:00;;;;;;;13.00;12.20;;;;;;;;;;4995056;28;20038;-50
2023/02/06 01:00:25;;;;;;;12.82;12.02;;;;;;;;;;4995515;28;20073;-53
2023/02/06 01:02:51;;;;;;;14.00;13.00;;;;;;;;;;4997364;28;20035;-61
2023/02/06 01:05:16;;;;;;;14.30;13.43;;;;;;;;;;4993471;28;20464;-60
2023/02/06 01:07:42;;;;;;;13.40;12.60;;;;;;;;;;4987117;28;20129;-62
2023/02/06 01:10:08;;;;;;;14.43;13.43;;;;;;;;;;4994453;28;20061;-61
2023/02/06 01:12:35;;;;;;;14.13;13.23;;;;;;;;;;4993214;28;20040;-62
2023/02/06 01:15:01;;;;;;;15.18;14.25;;;;;;;;;;4996267;28;20040;-61
2023/02/06 01:17:27;;;;;;;14.45;13.57;;;;;;;;;;4998510;28;20037;-52
2023/02/06 01:19:52;;;;;;;14.93;13.93;;;;;;;;;;4999631;28;20878;-51
2023/02/06 01:22:18;;;;;;;13.60;12.70;;;;;;;;;;4994961;28;20046;-60
2023/02/06 01:24:43;;;;;;;14.38;13.48;;;;;;;;;;4998110;28;20041;-61
2023/02/06 01:27:08;;;;;;;14.43;13.60;;;;;;;;;;4996552;28;20042;-61
2023/02/06 01:29:34;;;;;;;14.68;13.77;;;;;;;;;;4994170;28;20041;-61
2023/02/06 01:31:59;;;;;;;14.38;13.48;;;;;;;;;;4997243;28;20038;-61
2023/02/06 01:34:24;;;;;;;14.50;13.60;;;;;;;;;;4995098;28;20103;-53
2023/02/06 01:36:50;;;;;;;13.63;12.73;;;;;;;;;;4996043;28;20041;-61
2023/02/06 01:39:15;;;;;;;13.88;13.05;;;;;;;;;;4994029;28;20439;-61
2023/02/06 01:41:40;;;;;;;12.82;12.02;;;;;;;;;;4994594;28;20120;-61
2023/02/06 01:44:14;;;;;;;14.73;13.75;;;;;;;;;;4994542;28;20033;-62
2023/02/06 01:46:41;;;;;;;15.25;14.35;;;;;;;;;;5001906;28;20030;-61
2023/02/06 01:49:11;;;;;;;13.75;12.85;;;;;;;;;;4994669;28;20045;-61
2023/02/06 01:51:36;;;;;;;13.57;12.77;;;;;;;;;;4995600;28;20063;-61
2023/02/06 01:54:05;;;;;;;14.07;13.20;;;;;;;;;;4995419;28;20044;-51
2023/02/06 01:56:34;;;;;;;12.05;11.25;;;;;;;;;;4986488;28;20042;-53
2023/02/06 01:59:01;;;;;;;12.02;11.23;;;;;;;;;;4995159;28;20029;-52
2023/02/06 02:01:28;;;;;;;12.45;11.68;;;;;;;;;;4994375;28;20174;-61
2023/02/06 02:04:00;;;;;;;11.38;10.68;;;;;;;;;;4998106;28;20089;-61
2023/02/06 02:06:26;;;;;;;12.95;12.15;;;;;;;;;;4993537;28;20367;-61
2023/02/06 02:08:54;;;;;;;12.15;11.35;;;;;;;;;;4994969;28;20104;-61
2023/02/06 02:11:24;;;;;;;13.38;12.48;;;;;;;;;;4995052;28;20087;-63
2023/02/06 02:13:50;;;;;;;13.52;12.60;;;;;;;;;;4993931;28;20033;-62
2023/02/06 02:16:32;;;;;;;14.52;13.57;;;;;;;;;;4994959;28;20059;-62
2023/02/06 02:19:19;;;;;;;12.68;11.82;;;;;;;;;;4993455;28;20532;-54
2023/02/06 02:21:50;;;;;;;12.02;11.32;;;;;;;;;;4991502;28;20034;-51
2023/02/06 02:24:58;;;;;;;14.02;13.10;;;;;;;;;;4993529;28;20034;-54
2023/02/06 02:28:01;;;;;;;12.32;11.60;;;;;;;;;;4995926;28;20049;-62
2023/02/06 02:30:47;;;;;;;11.77;11.07;;;;;;;;;;4991824;28;20034;-62
2023/02/06 02:33:22;;;;;;;12.57;11.77;;;;;;;;;;4994284;28;20351;-61
2023/02/06 02:35:56;;;;;;;11.68;10.98;;;;;;;;;;4994554;28;20039;-52
2023/02/06 02:38:29;;;;;;;12.50;11.70;;;;;;;;;;4998089;28;20113;-55
2023/02/06 02:41:05;;;;;;;11.80;11.10;;;;;;;;;;4995595;28;20038;-61
2023/02/06 02:43:38;;;;;;;14.35;13.32;;;;;;;;;;4985826;28;20137;-53
2023/02/06 02:46:16;;;;;;;12.00;11.20;;;;;;;;;;5002876;28;20038;-62
2023/02/06 02:48:45;;;;;;;12.48;11.68;;;;;;;;;;4994703;28;20057;-52
2023/02/06 02:51:11;;;;;;;11.88;11.18;;;;;;;;;;4993587;28;20026;-54
2023/02/06 02:53:36;;;;;;;13.70;12.90;;;;;;;;;;5001304;28;20041;-53
2023/02/06 02:56:14;;;;;;;13.00;12.20;;;;;;;;;;4995032;28;20147;-51
2023/02/06 02:58:39;;;;;;;12.75;11.95;;;;;;;;;;4995112;28;20500;-52
2023/02/06 03:01:13;;;;;;;12.45;11.68;;;;;;;;;;4995043;28;20042;-53
2023/02/06 03:03:40;;;;;;;12.25;11.48;;;;;;;;;;5004756;28;20034;-51
2023/02/06 03:06:12;;;;;;;11.07;10.38;;;;;;;;;;5000972;28;20029;-62
2023/02/06 03:08:46;;;;;;;12.25;11.35;;;;;;;;;;4996001;28;20030;-62
2023/02/06 03:11:16;;;;;;;11.95;11.25;;;;;;;;;;4997818;28;20034;-61
2023/02/06 03:13:52;;;;;;;12.77;11.98;;;;;;;;;;4999462;28;20453;-61
2023/02/06 03:16:30;;;;;;;13.32;12.27;;;;;;;;;;5004495;28;20084;-62
2023/02/06 03:19:11;;;;;;;12.88;12.07;;;;;;;;;;4997430;28;20034;-51
2023/02/06 03:21:38;;;;;;;;;;;;;;;;;;5005993;28;20044;-51
2023/02/06 03:24:08;;;;;;;13.00;12.18;;;;;;;;;;5028316;28;20311;-62
2023/02/06 03:26:36;;;;;;;13.73;12.80;;;;;;;;;;4998703;28;20641;-62
2023/02/06 03:29:05;;;;;;;12.82;11.98;;;;;;;;;;4997750;28;20034;-53
2023/02/06 03:32:22;;;;;;;12.18;11.38;;;;;;;;;;4998233;28;20682;-62
2023/02/06 03:35:15;;;;;;;12.63;11.82;;;;;;;;;;4995797;28;20049;-62
2023/02/06 03:37:41;;;;;;;11.95;11.25;;;;;;;;;;5005584;28;20045;-62
2023/02/06 03:40:07;;;;;;;12.48;11.68;;;;;;;;;;4996609;28;20030;-62
2023/02/06 03:42:37;;;;;;;12.07;11.27;;;;;;;;;;4997738;28;20053;-53
2023/02/06 03:45:21;;;;;;;11.77;11.07;;;;;;;;;;4997273;28;20375;-62
2023/02/06 03:47:48;;;;;;;11.93;11.18;;;;;;;;;;5004773;28;20133;-62
2023/02/06 03:53:37;;;;;;;;;;;;;;;;;;4992066;28;20049;-63
2023/02/06 03:56:09;;;;;;;12.85;12.05;;;;;;;;;;4998701;28;19921;-62
2023/02/06 03:58:34;;;;;;;13.10;12.30;;;;;;;;;;4983075;28;20034;-54
2023/02/06 04:01:02;;;;;;;12.60;11.88;;;;;;;;;;5004979;28;20049;-58
2023/02/06 04:03:28;;;;;;;12.98;12.18;;;;;;;;;;4996717;28;20044;-52
2023/02/06 04:05:54;;;;;;;12.30;11.27;;;;;;;;;;4996114;28;20053;-62
2023/02/06 04:08:19;;;;;;;11.10;10.40;;;;;;;;;;4996352;28;20089;-60
2023/02/06 04:10:44;;;;;;;13.05;12.25;;;;;;;;;;4988709;28;20025;-60
2023/02/06 04:13:10;;;;;;;14.32;13.43;;;;;;;;;;5000432;28;20034;-61
2023/02/06 04:15:35;;;;;;;13.50;12.70;;;;;;;;;;4998913;28;20128;-61
2023/02/06 04:18:03;;;;;;;13.52;12.68;;;;;;;;;;5003597;28;20034;-63
2023/02/06 04:20:29;;;;;;;13.65;12.75;;;;;;;;;;4999379;28;20033;-59
2023/02/06 04:22:55;;;;;;;12.50;11.70;;;;;;;;;;5001683;28;20495;-53
2023/02/06 04:25:20;;;;;;;11.65;10.95;;;;;;;;;;5003652;28;20046;-62
2023/02/06 04:27:46;;;;;;;12.90;12.10;;;;;;;;;;4998082;28;20041;-51
2023/02/06 04:30:12;;;;;;;12.88;12.07;;;;;;;;;;4994586;28;20038;-55
2023/02/06 04:32:37;;;;;;;11.68;10.88;;;;;;;;;;4996692;28;20551;-54
2023/02/06 04:35:02;;;;;;;11.70;11.00;;;;;;;;;;4995547;28;20484;-62
2023/02/06 04:37:28;;;;;;;12.63;11.93;;;;;;;;;;4995689;28;20036;-62
2023/02/06 04:39:53;;;;;;;11.98;11.27;;;;;;;;;;5004874;28;20585;-62
2023/02/06 04:42:18;;;;;;;11.82;11.10;;;;;;;;;;4997791;28;20042;-61
2023/02/06 04:44:44;;;;;;;10.90;10.23;;;;;;;;;;4998699;28;20510;-62
2023/02/06 04:47:09;;;;;;;12.43;11.68;;;;;;;;;;4997823;28;20061;-61
2023/02/06 04:49:35;;;;;;;12.00;11.20;;;;;;;;;;4995547;28;20460;-62
2023/02/06 04:52:00;;;;;;;12.73;11.82;;;;;;;;;;5003542;28;20029;-63
2023/02/06 04:54:25;;;;;;;13.32;12.52;;;;;;;;;;4995250;28;20033;-61
2023/02/06 04:56:51;;;;;;;11.35;10.65;;;;;;;;;;4996577;28;20096;-61
2023/02/06 04:59:16;;;;;;;11.93;11.23;;;;;;;;;;4996487;28;20480;-62
2023/02/06 05:01:41;;;;;;;13.02;12.18;;;;;;;;;;4996033;28;20264;-63
2023/02/06 05:04:07;;;;;;;13.27;12.45;;;;;;;;;;4996329;28;20528;-62
2023/02/06 05:06:33;;;;;;;13.23;12.35;;;;;;;;;;4993801;28;20041;-62
2023/02/06 05:08:58;;;;;;;12.52;11.73;;;;;;;;;;4995373;28;20053;-52
2023/02/06 05:11:24;;;;;;;11.90;11.20;;;;;;;;;;4993357;28;20034;-52
2023/02/06 05:13:50;;;;;;;11.98;11.27;;;;;;;;;;5002060;28;20041;-61
2023/02/06 05:16:16;;;;;;;12.88;12.07;;;;;;;;;;4996534;28;20041;-62
2023/02/06 05:18:46;;;;;;;12.05;11.35;;;;;;;;;;4993815;28;20034;-63
2023/02/06 05:21:13;;;;;;;12.48;11.68;;;;;;;;;;4994780;28;20077;-63
2023/02/06 05:23:39;;;;;;;14.57;13.70;;;;;;;;;;5001332;28;20463;-63
2023/02/06 05:26:05;;;;;;;13.38;12.57;;;;;;;;;;4998533;28;20448;-63
2023/02/06 05:28:32;;;;;;;13.38;12.57;;;;;;;;;;4996017;28;20042;-63
2023/02/06 05:31:01;;;;;;;13.85;12.95;;;;;;;;;;4996023;28;20065;-62
2023/02/06 05:33:27;;;;;;;13.27;12.48;;;;;;;;;;4995500;28;20030;-62
2023/02/06 05:35:52;;;;;;;12.70;11.90;;;;;;;;;;4995618;28;20447;-62
2023/02/06 05:38:18;;;;;;;12.95;12.15;;;;;;;;;;4995412;28;20042;-53
2023/02/06 05:40:44;;;;;;;12.90;11.90;;;;;;;;;;4993405;28;20072;-52
2023/02/06 05:43:09;;;;;;;13.45;12.65;;;;;;;;;;4996483;28;20041;-54
2023/02/06 05:45:35;;;;;;;13.57;12.45;;;;;;;;;;4994895;28;20044;-52
2023/02/06 05:48:00;;;;;;;12.90;12.10;;;;;;;;;;4995850;28;20038;-52
2023/02/06 05:50:25;;;;;;;12.75;11.88;;;;;;;;;;4995265;28;20092;-54
2023/02/06 05:52:51;;;;;;;12.80;12.00;;;;;;;;;;4995592;28;20096;-53
2023/02/06 05:55:17;;;;;;;12.05;11.18;;;;;;;;;;4996152;28;20046;-51
2023/02/06 05:57:43;;;;;;;12.57;11.77;;;;;;;;;;4980872;28;20479;-52
2023/02/06 06:00:09;;;;;;;13.82;12.82;;;;;;;;;;4996734;28;20045;-53
2023/02/06 06:02:35;;;;;;;13.20;12.40;;;;;;;;;;4996190;28;20480;-52
2023/02/06 06:05:00;;;;;;;12.80;12.00;;;;;;;;;;4995175;28;20048;-60
2023/02/06 06:07:25;;;;;;;12.57;11.68;;;;;;;;;;4997077;28;20049;-50
2023/02/06 06:09:51;;;;;;;12.90;12.10;;;;;;;;;;4995142;28;20057;-51
2023/02/06 06:12:16;;;;;;;13.07;12.18;;;;;;;;;;5000059;28;20044;-61
2023/02/06 06:14:41;;;;;;;12.57;11.77;;;;;;;;;;4994230;28;20048;-53
2023/02/06 06:17:07;;;;;;;12.55;11.63;;;;;;;;;;4993240;28;20109;-61
2023/02/06 06:19:32;;;;;;;11.93;11.23;;;;;;;;;;4994136;28;20077;-61
2023/02/06 06:21:58;;;;;;;11.63;10.68;;;;;;;;;;4994516;28;20116;-61
2023/02/06 06:24:24;;;;;;;12.05;11.07;;;;;;;;;;4994792;28;20421;-61
2023/02/06 06:26:49;;;;;;;13.35;11.45;;;;;;;;;;4993979;28;20030;-54
2023/02/06 06:29:15;;;;;;;11.48;10.77;;;;;;;;;;4994004;28;20041;-61
2023/02/06 06:31:40;;;;;;;12.38;11.57;;;;;;;;;;4998375;28;20137;-61
2023/02/06 06:34:05;;;;;;;13.02;12.13;;;;;;;;;;4993376;28;20045;-61
2023/02/06 06:36:31;;;;;;;12.48;11.68;;;;;;;;;;4994628;28;20097;-49
2023/02/06 06:38:56;;;;;;;12.77;11.80;;;;;;;;;;4998351;28;20038;-61
2023/02/06 06:41:22;;;;;;;13.32;12.38;;;;;;;;;;5000057;28;20070;-60
2023/02/06 06:43:47;;;;;;;12.52;11.73;;;;;;;;;;4984556;28;20074;-60
2023/02/06 06:46:12;;;;;;;11.90;11.20;;;;;;;;;;4998396;28;20045;-60
2023/02/06 06:48:39;;;;;;;14.18;13.07;;;;;;;;;;4999566;28;20053;-49
2023/02/06 06:51:05;;;;;;;13.68;12.73;;;;;;;;;;4999747;28;20461;-52
2023/02/06 06:53:30;;;;;;;12.85;12.05;;;;;;;;;;4998250;28;20113;-61
2023/02/06 06:56:02;;;;;;;14.07;13.18;;;;;;;;;;4997962;28;20175;-50
2023/02/06 06:58:27;;;;;;;12.70;12.00;;;;;;;;;;4997975;28;20103;-61
2023/02/06 07:00:53;;;;;;;14.40;13.50;;;;;;;;;;4998964;28;20148;-51
2023/02/06 07:03:18;;;;;;;14.07;13.10;;;;;;;;;;4997279;28;20053;-53
2023/02/06 07:05:43;;;;;;;13.05;12.25;;;;;;;;;;4999921;28;20030;-53
2023/02/06 07:08:09;;;;;;;13.75;12.85;;;;;;;;;;4998345;28;20145;-54
2023/02/06 07:10:34;;;;;;;13.85;12.88;;;;;;;;;;4999140;28;20176;-52
2023/02/06 07:13:00;;;;;;;15.82;14.63;;;;;;;;;;4997516;28;20516;-51
2023/02/06 07:15:25;;;;;;;14.75;13.75;;;;;;;;;;5000444;28;20098;-61
2023/02/06 07:17:50;;;;;;;15.57;14.57;;;;;;;;;;5001925;28;20030;-62
2023/02/06 07:20:16;;;;;;;15.07;14.02;;;;;;;;;;4998626;28;20046;-49
2023/02/06 07:22:41;;;;;;;16.30;15.20;;;;;;;;;;4999757;28;20043;-50
2023/02/06 07:25:07;;;;;;;13.23;12.43;;;;;;;;;;4998025;28;20368;-54
2023/02/06 07:27:32;;;;;;;13.80;12.88;;;;;;;;;;4994237;28;20658;-60
2023/02/06 07:29:58;;;;;;;14.55;13.65;;;;;;;;;;4998264;28;20044;-52
2023/02/06 07:32:24;;;;;;;13.75;12.95;;;;;;;;;;5004896;28;20030;-54
2023/02/06 07:34:50;;;;;;;14.30;13.30;;;;;;;;;;5002848;28;20042;-54
2023/02/06 07:37:15;;;;;;;14.05;13.15;;;;;;;;;;5004711;28;20149;-62
2023/02/06 07:39:40;;;;;;;14.57;13.68;;;;;;;;;;4999990;28;20511;-60
2023/02/06 07:42:06;;;;;;;14.07;13.18;;;;;;;;;;4996960;28;20038;-51
2023/02/06 07:44:32;;;;;;;14.32;13.43;;;;;;;;;;5003661;28;20085;-51
2023/02/06 07:46:58;;;;;;;13.38;12.57;;;;;;;;;;5003768;28;20084;-61
2023/02/06 07:49:23;;;;;;;13.52;12.73;;;;;;;;;;4996883;28;20461;-60
2023/02/06 07:51:48;;;;;;;14.02;13.13;;;;;;;;;;4997583;28;20038;-61
2023/02/06 07:54:14;;;;;;;12.90;12.10;;;;;;;;;;4998789;28;20042;-61
2023/02/06 07:56:40;;;;;;;13.77;12.88;;;;;;;;;;4998459;28;20037;-51
2023/02/06 07:59:05;;;;;;;12.95;12.15;;;;;;;;;;4998768;28;20161;-49
2023/02/06 08:01:31;;;;;;;13.25;12.40;;;;;;;;;;5003510;28;20034;-60
2023/02/06 08:03:56;;;;;;;13.45;12.65;;;;;;;;;;4996193;28;20041;-52
2023/02/06 08:06:23;;;;;;;12.57;11.77;;;;;;;;;;4999137;28;20595;-60
2023/02/06 08:08:49;;;;;;;12.90;12.00;;;;;;;;;;4999991;28;20033;-51
2023/02/06 08:11:17;;;;;;;13.15;12.07;;;;;;;;;;5000606;28;20034;-51
2023/02/06 08:13:43;;;;;;;12.63;11.85;;;;;;;;;;4999604;28;20108;-60
2023/02/06 08:16:12;;;;;;;12.85;12.05;;;;;;;;;;4999188;28;20523;-50
2023/02/06 08:18:37;;;;;;;12.80;11.98;;;;;;;;;;4997595;28;20080;-50
2023/02/06 08:21:06;;;;;;;12.80;11.95;;;;;;;;;;4997947;28;20076;-53
2023/02/06 08:23:31;;;;;;;12.73;11.93;;;;;;;;;;4996584;28;20042;-60
2023/02/06 08:26:05;;;;;;;11.35;10.65;;;;;;;;;;4996998;28;20040;-52
2023/02/06 08:28:31;;;;;;;13.90;13.00;;;;;;;;;;4994827;28;20041;-53
2023/02/06 08:30:56;;;;;;;13.30;12.40;;;;;;;;;;4997900;28;20030;-54
2023/02/06 08:33:23;;;;;;;11.88;11.18;;;;;;;;;;4997525;28;20042;-53
2023/02/06 08:35:48;;;;;;;12.63;11.82;;;;;;;;;;4994876;28;20038;-61
2023/02/06 08:38:13;;;;;;;12.80;12.00;;;;;;;;;;4995783;28;20097;-60
2023/02/06 08:40:38;;;;;;;13.98;13.07;;;;;;;;;;4996090;28;20107;-51
2023/02/06 08:43:04;;;;;;;14.68;13.77;;;;;;;;;;4995078;28;20084;-52
2023/02/06 08:45:29;;;;;;;16.17;15.18;;;;;;;;;;4997609;28;20760;-51
2023/02/06 08:47:54;;;;;;;14.02;13.20;;;;;;;;;;5001380;28;20076;-55
2023/02/06 08:50:20;;;;;;;15.05;14.05;;;;;;;;;;4997679;28;20451;-54
2023/02/06 08:52:45;;;;;;;15.02;14.13;;;;;;;;;;5004263;28;20048;-61
2023/02/06 08:55:10;;;;;;;14.15;13.32;;;;;;;;;;4995718;28;20672;-60
2023/02/06 08:57:36;;;;;;;14.32;13.43;;;;;;;;;;4997859;28;20045;-53
2023/02/06 09:00:02;;;;;;;11.90;11.20;;;;;;;;;;4995743;28;20029;-60
2023/02/06 09:02:27;;;;;;;12.52;11.73;;;;;;;;;;4999904;28;20069;-61
2023/02/06 09:04:53;;;;;;;10.85;10.15;;;;;;;;;;4994306;28;20061;-61
2023/02/06 09:07:18;;;;;;;11.00;10.27;;;;;;;;;;5004354;28;20068;-61
2023/02/06 09:09:44;;;;;;;12.32;11.48;;;;;;;;;;4995166;28;20142;-61
2023/02/06 09:12:10;;;;;;;12.30;11.50;;;;;;;;;;4994067;28;20034;-62
2023/02/06 09:14:36;;;;;;;11.43;10.60;;;;;;;;;;4995193;28;20038;-61
2023/02/06 09:17:01;;;;;;;12.50;11.48;;;;;;;;;;4994249;28;20038;-62
2023/02/06 09:19:27;;;;;;;11.23;10.52;;;;;;;;;;5002130;28;20038;-60
2023/02/06 09:21:52;;;;;;;10.82;10.13;;;;;;;;;;4993723;28;20125;-54
2023/02/06 09:24:18;;;;;;;11.73;10.80;;;;;;;;;;4994894;28;20124;-60
2023/02/06 09:26:44;;;;;;;10.38;9.70;;;;;;;;;;4994918;28;20116;-51
2023/02/06 09:29:11;;;;;;;10.82;10.13;;;;;;;;;;4994466;28;20121;-52
2023/02/06 09:31:39;;;;;;;11.50;10.80;;;;;;;;;;5001089;28;20034;-53
2023/02/06 09:34:05;;;;;;;11.38;10.68;;;;;;;;;;4995009;28;20042;-61
2023/02/06 09:36:33;;;;;;;12.85;12.05;;;;;;;;;;4995865;28;20034;-62
2023/02/06 09:38:59;;;;;;;11.95;11.25;;;;;;;;;;4994291;28;20042;-53
2023/02/06 09:41:25;;;;;;;11.88;11.18;;;;;;;;;;4994855;28;20064;-53
2023/02/06 09:44:06;;;;;;;11.63;10.93;;;;;;;;;;4995791;28;20372;-50
2023/02/06 09:46:32;;;;;;;;;;;;;;;;;;4995510;28;20471;-61
2023/02/06 09:49:01;;;;;;;12.18;11.40;;;;;;;;;;4995257;28;19928;-61
2023/02/06 09:51:55;;;;;;;12.15;11.45;;;;;;;;;;4997648;28;20038;-60
2023/02/06 09:54:34;;;;;;;12.15;11.10;;;;;;;;;;4991371;28;20057;-54
2023/02/06 09:57:13;;;;;;;11.07;10.38;;;;;;;;;;4994689;28;20033;-54
2023/02/06 09:59:44;;;;;;;10.75;10.07;;;;;;;;;;4994469;28;20478;-61
2023/02/06 10:02:12;;;;;;;;;;;;;;;;;;4997722;28;20408;-50
2023/02/06 10:04:58;;;;;;;11.52;10.82;;;;;;;;;;4995152;28;20203;-61
2023/02/06 10:07:56;;;;;;;11.95;11.10;;;;;;;;;;4997972;28;20459;-52
2023/02/06 10:10:42;;;;;;;11.65;10.95;;;;;;;;;;4993490;28;20115;-59
2023/02/06 10:13:21;;;;;;;10.48;9.88;;;;;;;;;;4994238;28;20033;-53
2023/02/06 10:15:50;;;;;;;11.77;11.07;;;;;;;;;;4993862;28;20030;-53
2023/02/06 10:18:34;;;;;;;11.05;10.35;;;;;;;;;;4997218;28;20100;-54
2023/02/06 10:21:14;;;;;;;11.43;10.73;;;;;;;;;;5008468;28;20026;-51
2023/02/06 10:23:54;;;;;;;11.25;10.55;;;;;;;;;;4993554;28;20038;-61
2023/02/06 10:26:21;;;;;;;10.70;10.05;;;;;;;;;;4996786;28;20136;-60
2023/02/06 10:28:57;;;;;;;12.23;11.43;;;;;;;;;;4995731;28;20053;-51
2023/02/06 10:31:23;;;;;;;11.93;11.23;;;;;;;;;;4996651;28;20137;-61
2023/02/06 10:33:48;;;;;;;10.77;10.10;;;;;;;;;;4977525;28;20212;-60
2023/02/06 10:36:28;;;;;;;12.18;11.27;;;;;;;;;;4995026;28;20053;-61
2023/02/06 10:39:12;;;;;;;13.05;12.25;;;;;;;;;;4992852;28;20430;-60
2023/02/06 10:41:53;;;;;;;12.00;11.30;;;;;;;;;;4994069;28;20073;-60
2023/02/06 10:44:44;;;;;;;12.10;11.40;;;;;;;;;;4998237;28;20737;-52
2023/02/06 10:47:16;;;;;;;;;;;;;;;;;;4994318;28;20053;-54
2023/02/06 10:49:48;;;;;;;11.45;10.75;;;;;;;;;;4994701;28;20312;-54
2023/02/06 10:52:28;;;;;;;13.00;12.20;;;;;;;;;;5002325;28;20040;-61
2023/02/06 10:55:12;;;;;;;11.43;10.60;;;;;;;;;;4999881;28;20030;-60
2023/02/06 10:57:38;;;;;;;11.77;11.07;;;;;;;;;;4994203;28;20273;-60
2023/02/06 11:00:11;;;;;;;11.77;11.07;;;;;;;;;;4992055;28;20068;-60
2023/02/06 11:02:55;;;;;;;11.35;10.65;;;;;;;;;;4993550;28;20125;-60
2023/02/06 11:05:25;;;;;;;11.98;11.27;;;;;;;;;;4993411;28;20136;-60
2023/02/06 11:07:54;;;;;;;12.30;11.60;;;;;;;;;;4993490;28;20120;-59
2023/02/06 11:10:23;;;;;;;11.18;10.48;;;;;;;;;;4994201;28;20033;-60
2023/02/06 11:12:50;;;;;;;11.23;10.52;;;;;;;;;;4995551;28;20857;-60
2023/02/06 11:15:34;;;;;;;11.82;11.13;;;;;;;;;;4993702;28;20137;-59
2023/02/06 11:18:03;;;;;;;11.05;10.35;;;;;;;;;;4993036;28;20034;-65
2023/02/06 11:20:32;;;;;;;11.20;10.50;;;;;;;;;;4996683;28;20494;-60
2023/02/06 11:23:33;;;;;;;11.75;11.05;;;;;;;;;;4992282;28;20091;-59
2023/02/06 11:26:13;;;;;;;11.80;11.10;;;;;;;;;;4999046;28;20033;-60
2023/02/06 11:28:49;;;;;;;12.38;11.48;;;;;;;;;;4998497;28;20116;-60
2023/02/06 11:31:17;;;;;;;11.75;10.80;;;;;;;;;;4998848;28;20468;-59
2023/02/06 11:33:50;;;;;;;11.35;10.65;;;;;;;;;;4997530;28;20042;-59
2023/02/06 11:36:22;;;;;;;11.38;10.57;;;;;;;;;;4998814;28;20037;-54
2023/02/06 11:39:03;;;;;;;12.10;11.20;;;;;;;;;;4998187;28;20068;-54
2023/02/06 11:41:30;;;;;;;11.38;10.68;;;;;;;;;;4994649;28;20125;-53
2023/02/06 11:44:01;;;;;;;10.88;10.07;;;;;;;;;;5004708;28;20368;-59
2023/02/06 11:46:35;;;;;;;9.80;9.20;;;;;;;;;;4997051;28;20034;-60
2023/02/06 11:49:27;;;;;;;12.23;11.38;;;;;;;;;;4996431;28;20135;-59
2023/02/06 11:52:02;;;;;;;10.52;9.82;;;;;;;;;;4996947;28;20061;-54
2023/02/06 11:54:34;;;;;;;11.55;10.85;;;;;;;;;;5001859;28;20841;-59
2023/02/06 11:57:19;;;;;;;11.25;10.55;;;;;;;;;;5000944;28;20478;-59
2023/02/06 12:00:17;;;;;;;12.70;11.93;;;;;;;;;;4999308;28;20037;-58
2023/02/06 12:02:49;;;;;;;10.70;9.95;;;;;;;;;;4998412;28;20116;-59
2023/02/06 12:05:17;;;;;;;10.38;9.77;;;;;;;;;;4998560;28;20195;-52
2023/02/06 12:07:57;;;;;;;10.55;9.90;;;;;;;;;;4997798;28;20030;-55
2023/02/06 12:10:24;;;;;;;10.18;9.55;;;;;;;;;;4999067;28;20045;-54
2023/02/06 12:12:54;;;;;;;10.15;9.55;;;;;;;;;;4996519;28;20038;-54
2023/02/06 12:15:35;;;;;;;10.85;10.15;;;;;;;;;;4996596;28;20042;-60
2023/02/06 12:18:08;;;;;;;11.93;11.13;;;;;;;;;;4995929;28;20048;-60
2023/02/06 12:20:47;;;;;;;10.55;9.88;;;;;;;;;;4996953;28;20399;-59
2023/02/06 12:23:27;;;;;;;10.40;9.70;;;;;;;;;;4996927;28;20077;-59
2023/02/06 12:25:56;;;;;;;11.70;11.00;;;;;;;;;;4998242;28;20560;-59
2023/02/06 12:28:35;;;;;;;11.90;11.10;;;;;;;;;;4997524;28;20042;-60
2023/02/06 12:31:09;;;;;;;11.38;10.68;;;;;;;;;;4996118;28;20092;-60
2023/02/06 12:34:10;;;;;;;11.35;10.65;;;;;;;;;;4996647;28;20532;-60
2023/02/06 12:36:59;;;;;;;11.63;10.93;;;;;;;;;;4985755;28;20057;-60
2023/02/06 12:39:30;;;;;;;10.95;10.25;;;;;;;;;;4991526;28;20053;-60
2023/02/06 12:42:31;;;;;;;10.50;9.82;;;;;;;;;;4993840;28;20125;-60
2023/02/06 12:45:12;;;;;;;;;;;;;;;;;;4996772;28;20579;-60
2023/02/06 12:47:48;;;;;;;10.35;9.75;;;;;;;;;;4993816;28;20651;-60
2023/02/06 12:50:21;;;;;;;10.52;9.82;;;;;;;;;;4997916;28;20049;-59
2023/02/06 12:52:57;;;;;;;10.98;10.07;;;;;;;;;;4993505;28;20411;-59
2023/02/06 12:55:33;;;;;;;10.27;9.60;;;;;;;;;;4997085;28;20104;-60
2023/02/06 12:57:58;;;;;;;10.43;9.82;;;;;;;;;;5000006;28;20165;-54
2023/02/06 13:00:46;;;;;;;9.88;9.27;;;;;;;;;;4998896;28;20493;-54
2023/02/06 13:03:26;;;;;;;10.93;10.23;;;;;;;;;;4995474;28;20109;-53
2023/02/06 13:06:11;;;;;;;11.43;10.45;;;;;;;;;;4994562;28;20061;-52
2023/02/06 13:08:45;;;;;;;11.05;10.25;;;;;;;;;;5003268;28;20061;-54
2023/02/06 13:11:39;;;;;;;10.00;9.40;;;;;;;;;;4994518;28;20045;-49
2023/02/06 13:14:24;;;;;;;11.43;10.57;;;;;;;;;;4997126;28;20034;-54
2023/02/06 13:16:57;;;;;;;11.45;10.75;;;;;;;;;;4993783;28;20392;-50
2023/02/06 13:19:25;;;;;;;9.95;9.35;;;;;;;;;;4994556;28;20662;-52
2023/02/06 13:22:13;;;;;;;10.18;9.57;;;;;;;;;;4994411;28;20041;-52
2023/02/06 13:24:47;;;;;;;9.63;9.02;;;;;;;;;;4994925;28;20058;-51
2023/02/06 13:27:14;;;;;;;10.48;9.80;;;;;;;;;;4984427;28;20579;-52
2023/02/06 13:29:42;;;;;;;12.77;10.88;;;;;;;;;;4994050;28;20515;-55
2023/02/06 13:32:11;;;;;;;11.32;10.63;;;;;;;;;;4994677;28;20080;-53
2023/02/06 13:34:45;;;;;;;10.10;9.50;;;;;;;;;;4992939;28;20038;-50
2023/02/06 13:37:30;;;;;;;12.07;11.35;;;;;;;;;;4994654;28;20038;-50
2023/02/06 13:40:24;;;;;;;11.07;10.38;;;;;;;;;;4998732;28;20061;-50
2023/02/06 13:43:04;;;;;;;10.63;10.02;;;;;;;;;;4995427;28;20029;-49
2023/02/06 13:45:32;;;;;;;11.05;10.35;;;;;;;;;;4993563;28;20053;-49
2023/02/06 13:48:28;;;;;;;10.93;10.23;;;;;;;;;;4999812;28;20053;-52
2023/02/06 13:51:21;;;;;;;13.52;12.63;;;;;;;;;;4994562;28;20402;-51
2023/02/06 13:53:49;;;;;;;11.02;10.32;;;;;;;;;;4994519;28;20153;-49
2023/02/06 13:56:33;;;;;;;11.55;10.85;;;;;;;;;;4992545;28;20037;-53
2023/02/06 13:59:05;;;;;;;10.82;10.13;;;;;;;;;;4996272;28;20493;-51
2023/02/06 14:01:32;;;;;;;10.88;10.18;;;;;;;;;;4990781;28;20397;-51
2023/02/06 14:03:59;;;;;;;10.32;9.73;;;;;;;;;;4991069;28;20034;-51
2023/02/06 14:06:47;;;;;;;10.20;9.60;;;;;;;;;;4995675;28;20199;-51
2023/02/06 14:12:53;;;;;;;9.50;8.85;;;;;;;;;;4991484;28;20097;-52
2023/02/06 14:15:38;;;;;;;10.63;9.98;;;;;;;;;;4992389;28;20574;-53
2023/02/06 14:18:19;;;;;;;9.98;9.38;;;;;;;;;;4994477;28;20045;-54
2023/02/06 14:21:18;;;;;;;10.38;9.77;;;;;;;;;;4993127;28;20038;-53
2023/02/06 14:24:05;;;;;;;10.45;9.85;;;;;;;;;;4987081;28;20046;-54
2023/02/06 14:27:05;;;;;;;10.98;10.27;;;;;;;;;;4993887;28;20069;-51
2023/02/06 14:30:11;;;;;;;10.00;9.40;;;;;;;;;;4975538;28;20609;-50
2023/02/06 14:32:53;;;;;;;10.25;9.65;;;;;;;;;;5011194;28;20729;-52
2023/02/06 14:35:40;;;;;;;10.10;9.40;;;;;;;;;;4991583;28;20562;-53
2023/02/06 14:39:01;;;;;;;10.00;9.40;;;;;;;;;;4994262;28;20540;-51
2023/02/06 14:41:29;;;;;;;11.15;9.25;;;;;;;;;;4974717;28;20112;-52
2023/02/06 14:43:56;;;;;;;11.05;10.35;;;;;;;;;;4988325;28;20364;-60
2023/02/06 14:46:21;;;;;;;10.07;9.35;;;;;;;;;;4998253;28;20372;-60
2023/02/06 14:48:54;;;;;;;11.40;10.70;;;;;;;;;;4994239;28;20030;-53
2023/02/06 14:51:30;;;;;;;9.55;8.95;;;;;;;;;;4994075;28;20057;-60